Time;durP1;ratioP1;P1;durP2;ratioP2;P2;SDS_P1;SDS_P2;PMS_P1;PMS_P2;Temp;Humidity;BMP_temperature;BMP_pressure;BME280_temperature;BME280_humidity;BME280_pressure;Samples;Min_cycle;Max_cycle;Signal;HPM_P1;HPM_P2
2022/04/30 00:00:20;;;;;;;3.87;3.30;;;;;;;9.86;64.20;101533.13;5058075;28;20209;-77
2022/04/30 00:02:46;;;;;;;4.70;4.17;;;;;;;9.87;64.27;101525.31;5051303;28;20332;-77
2022/04/30 00:05:14;;;;;;;5.67;3.90;;;;;;;9.72;64.62;101525.28;5051247;28;20213;-76
2022/04/30 00:07:41;;;;;;;3.50;3.20;;;;;;;9.81;64.56;101519.19;5051426;28;20262;-76
2022/04/30 00:10:08;;;;;;;4.20;3.80;;;;;;;9.72;65.09;101507.00;5051179;28;20256;-77
2022/04/30 00:12:36;;;;;;;4.17;3.40;;;;;;;9.77;64.92;101496.59;5051248;28;20266;-76
2022/04/30 00:15:02;;;;;;;4.10;3.40;;;;;;;9.82;64.99;101502.69;5051311;28;20207;-77
2022/04/30 00:17:29;;;;;;;5.33;4.03;;;;;;;9.81;64.96;101509.66;5051259;28;20255;-77
2022/04/30 00:19:55;;;;;;;3.90;3.60;;;;;;;9.73;64.69;101506.13;5050904;28;20252;-77
2022/04/30 00:22:22;;;;;;;4.47;3.43;;;;;;;9.45;66.13;101474.78;5051351;28;20225;-77
2022/04/30 00:24:49;;;;;;;3.97;3.60;;;;;;;9.34;66.75;101453.06;5051481;28;20261;-76
2022/04/30 00:27:15;;;;;;;4.37;3.57;;;;;;;9.45;66.45;101440.91;5055018;28;20234;-76
2022/04/30 00:29:46;;;;;;;5.10;3.87;;;;;;;9.53;66.23;101448.75;5069230;28;20658;-77
2022/04/30 00:32:14;;;;;;;4.57;3.90;;;;;;;9.61;65.79;101457.44;5070326;28;20857;-77
2022/04/30 00:34:41;;;;;;;4.17;3.77;;;;;;;9.66;66.16;101460.09;5074979;28;20245;-77
2022/04/30 00:37:08;;;;;;;5.10;3.60;;;;;;;9.65;66.18;101453.13;5074855;28;20253;-76
2022/04/30 00:39:35;;;;;;;4.63;3.50;;;;;;;9.42;67.24;101455.69;5074545;28;20257;-77
2022/04/30 00:42:01;;;;;;;4.03;3.70;;;;;;;8.97;68.37;101421.69;5074625;28;20315;-76
2022/04/30 00:44:28;;;;;;;7.27;4.10;;;;;;;8.72;70.07;101374.75;5074115;28;20637;-77
2022/04/30 00:46:57;;;;;;;8.30;5.00;;;;;;;8.65;70.58;101341.75;5074457;28;20204;-77
2022/04/30 00:49:23;;;;;;;7.60;3.73;;;;;;;8.51;70.71;101323.47;5074018;28;20614;-77
2022/04/30 00:51:51;;;;;;;4.30;3.90;;;;;;;8.32;71.72;101290.41;5074225;28;20231;-76
2022/04/30 00:54:19;;;;;;;6.17;4.33;;;;;;;8.28;72.12;101279.13;5074055;28;20261;-77
2022/04/30 00:56:49;;;;;;;5.57;4.27;;;;;;;8.29;72.53;101259.22;5074086;28;20668;-76
2022/04/30 00:59:18;;;;;;;6.33;3.60;;;;;;;8.50;72.15;101269.72;5073727;28;20733;-77
2022/04/30 01:01:46;;;;;;;4.40;4.00;;;;;;;8.63;71.13;101290.56;5065863;28;20318;-77
2022/04/30 01:04:14;;;;;;;5.13;3.80;;;;;;;8.69;71.35;101291.44;5074494;28;20209;-76
2022/04/30 01:06:50;;;;;;;4.67;4.13;;;;;;;8.80;70.87;101296.69;5074229;28;20210;-77
2022/04/30 01:09:18;;;;;;;5.57;4.23;;;;;;;8.70;70.93;101316.63;5073477;28;20386;-77
2022/04/30 01:11:47;;;;;;;6.53;4.73;;;;;;;8.78;71.06;101308.84;5074112;28;20242;-77
2022/04/30 01:14:14;;;;;;;5.77;4.00;;;;;;;8.97;69.50;101324.50;5074181;28;20212;-76
2022/04/30 01:16:42;;;;;;;6.43;5.00;;;;;;;9.07;68.71;101341.88;5073944;28;20204;-75
2022/04/30 01:19:13;;;;;;;6.43;4.80;;;;;;;9.09;69.08;101345.34;5073680;28;20203;-76
2022/04/30 01:21:43;;;;;;;6.27;4.90;;;;;;;8.99;69.92;101340.97;5073921;28;20302;-77
2022/04/30 01:24:11;;;;;;;5.90;5.30;;;;;;;9.04;69.85;101340.13;5072906;28;20207;-77
2022/04/30 01:26:38;;;;;;;4.97;4.00;;;;;;;9.12;68.77;101342.75;5065600;28;20793;-77
2022/04/30 01:29:05;;;;;;;5.03;3.97;;;;;;;9.11;69.27;101346.22;5073259;28;20250;-76
2022/04/30 01:39:45;;;;;;;5.03;4.33;;;;;;;8.29;72.69;101241.84;5073299;28;20207;-77
2022/04/30 01:42:12;;;;;;;5.80;3.87;;;;;;;8.19;73.39;101234.03;5072974;28;20631;-76
2022/04/30 01:44:40;;;;;;;5.20;4.60;;;;;;;8.07;74.33;101201.91;5073538;28;20290;-76
2022/04/30 01:47:07;;;;;;;6.07;4.33;;;;;;;8.08;73.78;101190.63;5073589;28;20317;-77
2022/04/30 01:49:34;;;;;;;6.93;3.90;;;;;;;8.09;74.34;101179.38;5073149;28;20214;-77
2022/04/30 01:52:07;;;;;;;4.73;4.17;;;;;;;8.24;74.08;101182.88;5073075;28;20279;-76
2022/04/30 01:54:33;;;;;;;10.00;4.40;;;;;;;8.21;74.48;101185.50;5071012;28;20264;-75
2022/04/30 01:57:01;;;;;;;4.77;4.30;;;;;;;8.38;73.57;101194.19;5066706;28;20210;-77
2022/04/30 01:59:28;;;;;;;4.77;3.60;;;;;;;8.45;73.28;101208.13;5072371;28;20677;-76
2022/04/30 02:01:56;;;;;;;3.77;3.40;;;;;;;8.20;74.15;101208.00;5073351;28;20230;-76
2022/04/30 02:04:23;;;;;;;8.93;4.43;;;;;;;7.95;74.83;101181.94;5073386;28;20673;-75
2022/04/30 02:06:50;;;;;;;6.20;3.73;;;;;;;7.89;75.43;101162.84;5074128;28;20204;-76
2022/04/30 02:09:18;;;;;;;6.30;4.20;;;;;;;7.77;76.41;101137.69;5072275;28;20207;-77
2022/04/30 02:11:45;;;;;;;4.83;4.40;;;;;;;7.72;76.49;101121.19;5070743;28;20227;-77
2022/04/30 02:14:15;;;;;;;5.67;4.00;;;;;;;7.63;76.50;101105.56;5063709;28;20668;-76
2022/04/30 02:16:42;;;;;;;4.80;3.73;;;;;;;7.69;77.48;101079.59;5064601;28;20199;-76
2022/04/30 02:19:10;;;;;;;5.83;3.80;;;;;;;7.80;76.93;101090.03;5072344;28;20261;-77
2022/04/30 02:21:37;;;;;;;4.20;3.80;;;;;;;7.71;77.69;101081.34;5072863;28;20227;-77
2022/04/30 02:24:04;;;;;;;7.70;4.37;;;;;;;7.93;76.47;101089.22;5072779;28;20204;-76
2022/04/30 02:26:31;;;;;;;6.00;3.50;;;;;;;8.08;76.16;101098.75;5072365;28;20265;-76
2022/04/30 02:28:58;;;;;;;4.57;3.70;;;;;;;8.17;76.03;101122.19;5070749;28;20209;-77
2022/04/30 02:31:28;;;;;;;6.57;4.40;;;;;;;8.30;75.24;101142.13;5064061;28;20628;-76
2022/04/30 02:33:56;;;;;;;8.87;3.77;;;;;;;8.40;74.56;101144.75;5072637;28;20232;-77
2022/04/30 02:36:25;;;;;;;5.03;3.80;;;;;;;8.49;74.19;101155.22;5072077;28;20215;-77
2022/04/30 02:38:53;;;;;;;4.10;3.73;;;;;;;8.53;73.67;101170.84;5072145;28;20206;-77
2022/04/30 02:41:21;;;;;;;6.00;4.10;;;;;;;8.63;73.51;101181.25;5072571;28;20310;-77
2022/04/30 02:43:48;;;;;;;5.33;4.83;;;;;;;8.61;73.33;101194.25;5072120;28;20607;-77
2022/04/30 02:46:15;;;;;;;7.60;5.20;;;;;;;8.67;72.83;101196.88;5072116;28;20680;-76
2022/04/30 02:48:43;;;;;;;6.47;4.60;;;;;;;8.72;72.74;101204.69;5071702;28;20208;-75
2022/04/30 02:51:10;;;;;;;6.00;5.23;;;;;;;8.73;72.96;101212.50;5071775;28;20233;-76
2022/04/30 02:53:37;;;;;;;4.97;4.47;;;;;;;8.83;71.89;101223.78;5072232;28;20221;-76
2022/04/30 02:56:04;;;;;;;6.17;4.47;;;;;;;8.85;72.32;101234.22;5071649;28;20254;-74
2022/04/30 03:01:14;;;;;;;5.30;4.70;;;;;;;8.93;71.28;101250.69;5064271;28;20238;-77
2022/04/30 03:03:42;;;;;;;8.43;4.80;;;;;;;8.80;71.63;101246.34;5071493;28;20747;-76
2022/04/30 03:06:10;;;;;;;4.53;4.13;;;;;;;8.80;72.45;101233.31;5071630;28;20676;-76
2022/04/30 03:08:37;;;;;;;5.40;3.80;;;;;;;8.80;72.15;101223.81;5071938;28;20208;-76
2022/04/30 03:11:04;;;;;;;4.10;3.70;;;;;;;8.86;71.64;101229.00;5071662;28;20226;-77
2022/04/30 03:13:31;;;;;;;6.10;3.80;;;;;;;8.85;71.95;101226.41;5071630;28;20602;-76
2022/04/30 03:21:41;;;;;;;4.10;3.20;;;;;;;8.84;71.35;101225.53;5071615;28;20293;-77
2022/04/30 03:21:44;;;;;;;6.20;3.17;;;;;;;8.61;72.29;101240.25;5045700;28;20680;-77
2022/04/30 03:24:11;;;;;;;4.40;3.17;;;;;;;8.55;72.85;101212.47;5071662;28;20249;-76
2022/04/30 03:26:37;;;;;;;5.00;3.70;;;;;;;8.58;73.13;101185.59;5071756;28;20450;-77
2022/04/30 03:29:04;;;;;;;6.63;3.97;;;;;;;8.65;73.50;101182.13;5071423;28;20211;-77
2022/04/30 03:31:31;;;;;;;5.27;3.53;;;;;;;8.68;74.45;101159.59;5062881;28;20228;-76
2022/04/30 03:33:59;;;;;;;5.33;4.30;;;;;;;8.54;74.63;101154.38;5071933;28;20213;-76
2022/04/30 03:36:26;;;;;;;4.93;3.73;;;;;;;8.62;74.62;101143.06;5071843;28;20207;-75
2022/04/30 03:38:53;;;;;;;6.53;4.53;;;;;;;8.52;75.21;101129.19;5071233;28;20219;-75
2022/04/30 03:41:19;;;;;;;4.93;3.53;;;;;;;8.48;75.69;101124.84;5071748;28;20225;-77
2022/04/30 03:43:46;;;;;;;6.00;3.63;;;;;;;8.34;75.57;101119.59;5071703;28;20208;-76
2022/04/30 03:46:12;;;;;;;4.17;3.53;;;;;;;8.16;76.23;101112.66;5071639;28;20261;-77
2022/04/30 03:48:40;;;;;;;5.37;3.87;;;;;;;8.11;76.70;101098.78;5071183;28;20276;-77
2022/04/30 03:51:08;;;;;;;5.90;3.50;;;;;;;8.15;76.18;101093.59;5071630;28;20235;-76
2022/04/30 03:53:34;;;;;;;5.87;4.53;;;;;;;8.14;75.91;101096.19;5071501;28;20265;-76
2022/04/30 03:56:01;;;;;;;5.23;3.80;;;;;;;8.15;76.59;101103.13;5071689;28;20202;-76
2022/04/30 03:58:28;;;;;;;5.50;3.70;;;;;;;8.30;76.02;101118.72;5071439;28;20301;-77
2022/04/30 04:00:55;;;;;;;5.73;3.80;;;;;;;8.39;75.76;101130.03;5068584;28;20286;-77
2022/04/30 04:03:22;;;;;;;4.53;3.50;;;;;;;8.37;74.89;101147.38;5071805;28;20198;-77
2022/04/30 04:05:49;;;;;;;6.70;3.80;;;;;;;8.38;75.15;101143.91;5074983;28;20209;-77
2022/04/30 04:08:17;;;;;;;4.17;3.77;;;;;;;8.48;75.05;101148.28;5074968;28;20756;-77
2022/04/30 04:10:43;;;;;;;5.50;4.40;;;;;;;8.52;74.93;101163.00;5075101;28;20211;-76
2022/04/30 04:18:38;;;;;;;4.97;3.87;;;;;;;8.54;74.57;101180.38;5074769;28;20267;-76
2022/04/30 04:21:06;;;;;;;3.67;3.30;;;;;;;8.60;74.60;101184.72;5074918;28;20230;-76
2022/04/30 04:25:58;;;;;;;4.37;3.97;;;;;;;8.64;74.52;101185.59;5074956;28;20283;-76
2022/04/30 04:26:19;;;;;;;4.90;4.10;;;;;;;8.66;74.63;101176.03;5074453;28;20219;-75
2022/04/30 04:28:46;;;;;;;5.37;3.93;;;;;;;8.74;74.13;101184.72;5074803;28;20203;-77
2022/04/30 04:31:22;;;;;;;5.07;4.10;;;;;;;8.68;74.12;101193.41;5067545;28;20311;-76
2022/04/30 04:33:48;;;;;;;6.50;4.70;;;;;;;8.62;74.36;101196.03;5054529;28;20212;-76
2022/04/30 04:36:16;;;;;;;6.83;4.00;;;;;;;8.61;74.62;101191.66;5054884;28;20260;-75
2022/04/30 04:38:44;;;;;;;6.47;4.13;;;;;;;8.60;74.95;101173.44;5054976;28;20207;-76
2022/04/30 04:41:11;;;;;;;6.23;4.00;;;;;;;8.64;75.00;101183.88;5054919;28;20233;-76
2022/04/30 04:43:37;;;;;;;6.17;4.27;;;;;;;8.63;74.45;101173.47;5054479;28;20211;-76
2022/04/30 04:46:04;;;;;;;7.00;5.20;;;;;;;8.45;75.15;101163.91;5054530;28;20628;-75
2022/04/30 04:48:31;;;;;;;6.97;4.67;;;;;;;8.40;75.93;101147.38;5054100;28;20205;-77
2022/04/30 04:50:57;;;;;;;11.53;5.50;;;;;;;8.25;76.79;101133.47;5062452;28;20235;-76
2022/04/30 04:53:24;;;;;;;6.10;4.73;;;;;;;8.12;77.55;101113.50;5071136;28;20706;-76
2022/04/30 04:55:52;;;;;;;5.00;4.53;;;;;;;7.78;78.31;101087.44;5074437;28;20216;-76
2022/04/30 04:58:19;;;;;;;6.30;4.10;;;;;;;7.54;80.86;101042.31;5074041;28;20269;-76
2022/04/30 05:00:46;;;;;;;5.33;4.80;;;;;;;7.74;80.42;101015.53;5072913;28;20239;-77
2022/04/30 05:03:13;;;;;;;5.10;4.60;;;;;;;7.81;81.15;101024.19;5059010;28;20238;-76
2022/04/30 05:05:39;;;;;;;4.67;4.17;;;;;;;7.87;80.43;101021.59;5054342;28;20212;-76
2022/04/30 05:08:06;;;;;;;9.03;4.70;;;;;;;7.87;80.95;101026.78;5053951;28;20548;-76
2022/04/30 05:10:33;;;;;;;6.50;4.73;;;;;;;7.83;81.44;101006.84;5053794;28;20208;-76
2022/04/30 05:13:00;;;;;;;6.27;4.57;;;;;;;7.83;81.57;101006.84;5059049;28;20588;-77
2022/04/30 05:15:27;;;;;;;4.97;4.47;;;;;;;7.85;81.29;101012.94;5064586;28;20258;-76
2022/04/30 05:17:54;;;;;;;6.20;4.77;;;;;;;7.79;81.89;101019.00;5063440;28;20702;-75
2022/04/30 05:20:21;;;;;;;5.57;4.70;;;;;;;7.98;81.53;101029.44;5064724;28;20221;-76
2022/04/30 05:22:47;;;;;;;5.43;4.93;;;;;;;8.02;81.36;101033.75;5062867;28;20270;-76
2022/04/30 05:25:14;;;;;;;7.47;5.30;;;;;;;7.84;81.52;101032.88;5062703;28;20200;-76
2022/04/30 05:27:40;;;;;;;5.27;4.70;;;;;;;7.99;81.54;101016.44;5064365;28;20205;-76
2022/04/30 05:30:10;;;;;;;8.27;5.10;;;;;;;7.82;81.77;101025.94;5064915;28;20223;-76
2022/04/30 05:32:36;;;;;;;6.80;4.67;;;;;;;7.97;82.51;101007.78;5062028;28;20225;-76
2022/04/30 05:35:03;;;;;;;5.10;4.60;;;;;;;8.04;82.68;101009.50;5064620;28;20269;-76
2022/04/30 05:37:29;;;;;;;5.87;5.30;;;;;;;7.92;82.81;100993.88;5062833;28;20204;-76
2022/04/30 05:39:56;;;;;;;7.17;5.23;;;;;;;7.76;84.10;100973.06;5062127;28;20665;-76
2022/04/30 05:42:22;;;;;;;8.63;5.67;;;;;;;7.64;84.92;100951.41;5063658;28;20214;-76
2022/04/30 05:44:49;;;;;;;7.20;5.30;;;;;;;7.63;85.15;100942.75;5062461;28;20201;-76
2022/04/30 05:47:19;;;;;;;5.83;4.80;;;;;;;7.83;85.65;100934.09;5062597;28;20210;-76
2022/04/30 05:49:46;;;;;;;5.50;4.80;;;;;;;7.69;86.01;100923.69;5063842;28;20200;-76
2022/04/30 05:52:12;;;;;;;6.03;5.40;;;;;;;7.65;86.57;100919.34;5062170;28;20277;-75
2022/04/30 05:54:39;;;;;;;6.43;5.43;;;;;;;7.76;86.84;100912.44;5061931;28;20311;-75
2022/04/30 05:57:05;;;;;;;6.30;5.37;;;;;;;7.47;87.34;100913.31;5055656;28;20725;-76
2022/04/30 05:59:32;;;;;;;6.87;6.23;;;;;;;7.53;87.23;100902.03;5057716;28;20205;-75
2022/04/30 06:01:58;;;;;;;5.83;5.33;;;;;;;7.72;87.27;100897.72;5067521;28;20271;-76
2022/04/30 06:04:26;;;;;;;8.13;5.73;;;;;;;7.88;86.00;100924.56;5053055;28;20206;-76
2022/04/30 06:06:52;;;;;;;8.17;5.50;;;;;;;7.89;87.18;100915.94;5052775;28;20214;-75
2022/04/30 06:09:20;;;;;;;6.03;5.40;;;;;;;7.96;85.82;100941.03;5052685;28;20574;-76
2022/04/30 06:11:47;;;;;;;5.40;4.90;;;;;;;7.98;85.49;100959.22;5052886;28;20278;-76
2022/04/30 06:14:13;;;;;;;9.57;5.30;;;;;;;7.83;86.48;100962.69;5052795;28;20233;-76
2022/04/30 06:16:40;;;;;;;10.23;5.40;;;;;;;7.75;86.79;100955.75;5052627;28;20207;-76
2022/04/30 06:19:06;;;;;;;6.40;5.53;;;;;;;7.54;87.60;100945.34;5052706;28;20235;-76
2022/04/30 06:21:34;;;;;;;6.80;5.77;;;;;;;7.59;87.08;100929.75;5052862;28;20272;-76
2022/04/30 06:24:01;;;;;;;6.63;5.90;;;;;;;7.61;87.36;100939.31;5051997;28;20205;-76
2022/04/30 06:26:27;;;;;;;7.83;6.20;;;;;;;7.43;88.21;100934.91;5061844;28;20206;-75
2022/04/30 06:28:55;;;;;;;8.70;5.60;;;;;;;7.40;88.39;100924.53;5072370;28;20217;-76
2022/04/30 06:31:22;;;;;;;6.60;5.90;;;;;;;7.53;88.49;100922.81;5072182;28;20243;-76
2022/04/30 06:33:49;;;;;;;6.03;5.43;;;;;;;7.63;87.50;100936.69;5072564;28;20225;-76
2022/04/30 06:36:15;;;;;;;6.77;6.07;;;;;;;7.43;88.96;100936.66;5072409;28;20634;-76
2022/04/30 06:38:43;;;;;;;8.17;6.97;;;;;;;7.37;89.95;100914.13;5071856;28;20258;-75
2022/04/30 06:41:09;;;;;;;7.87;6.47;;;;;;;7.47;89.45;100894.22;5072108;28;20961;-75
2022/04/30 06:43:36;;;;;;;9.53;6.30;;;;;;;7.32;90.89;100882.97;5072199;28;20281;-75
2022/04/30 06:46:03;;;;;;;7.43;6.67;;;;;;;7.37;90.38;100888.16;5072194;28;20241;-76
2022/04/30 06:48:29;;;;;;;6.70;6.03;;;;;;;7.29;90.35;100892.47;5072006;28;20207;-75
2022/04/30 06:50:55;;;;;;;8.33;6.43;;;;;;;7.40;90.23;100876.94;5072035;28;20234;-76
2022/04/30 06:58:54;;;;;;;7.53;6.80;;;;;;;7.38;91.22;100874.31;5051346;28;20188;-75
2022/04/30 07:01:30;;;;;;;8.90;7.00;;;;;;;7.43;91.20;100874.31;5051851;28;20261;-76
2022/04/30 07:04:02;;;;;;;8.87;6.47;;;;;;;7.54;90.42;100889.03;5051805;28;20648;-76
2022/04/30 07:06:30;;;;;;;7.70;6.87;;;;;;;7.55;90.37;100898.59;5051984;28;20209;-76
2022/04/30 07:08:56;;;;;;;8.43;7.00;;;;;;;7.41;90.14;100918.47;5051723;28;20647;-76
2022/04/30 07:11:25;;;;;;;8.67;7.83;;;;;;;7.35;91.47;100897.69;5051917;28;20279;-76
2022/04/30 07:13:53;;;;;;;9.53;7.53;;;;;;;7.42;91.26;100899.44;5059890;28;20231;-76
2022/04/30 07:16:19;;;;;;;9.00;6.70;;;;;;;7.42;90.86;100893.38;5061868;28;20287;-76
2022/04/30 07:18:46;;;;;;;9.03;6.90;;;;;;;7.56;91.45;100895.09;5056442;28;20209;-75
2022/04/30 07:21:12;;;;;;;11.90;7.60;;;;;;;7.58;89.65;100917.63;5051689;28;20795;-76
2022/04/30 07:23:39;;;;;;;7.63;6.87;;;;;;;7.67;90.08;100928.03;5054773;28;20270;-78
2022/04/30 07:26:05;;;;;;;7.40;6.70;;;;;;;7.86;90.18;100928.91;5066482;28;20207;-78
2022/04/30 07:28:35;;;;;;;7.87;7.10;;;;;;;7.98;89.74;100935.84;5060894;28;20232;-78
2022/04/30 07:31:02;;;;;;;7.97;7.27;;;;;;;8.12;89.11;100947.09;5059898;28;20273;-78
2022/04/30 07:33:29;;;;;;;8.17;6.57;;;;;;;8.27;88.84;100961.84;5060012;28;20232;-78
2022/04/30 07:35:55;;;;;;;7.53;6.83;;;;;;;8.15;88.82;100970.50;5062151;28;20208;-79
2022/04/30 07:38:22;;;;;;;7.93;6.47;;;;;;;8.11;89.03;100981.78;5065904;28;20204;-79
2022/04/30 07:40:48;;;;;;;7.27;6.57;;;;;;;8.31;88.52;100987.81;5066168;28;20231;-79
2022/04/30 07:43:15;;;;;;;8.00;7.20;;;;;;;8.27;89.30;100974.84;5066073;28;20291;-79
2022/04/30 07:45:43;;;;;;;7.83;7.00;;;;;;;8.30;89.78;100959.22;5066317;28;20212;-78
2022/04/30 07:48:10;;;;;;;10.90;7.30;;;;;;;8.39;89.21;100977.41;5064712;28;20209;-78
2022/04/30 07:50:36;;;;;;;8.00;7.30;;;;;;;8.50;89.14;100990.44;5062945;28;20213;-78
2022/04/30 07:53:03;;;;;;;7.50;6.80;;;;;;;8.65;88.32;101011.22;5066455;28;20248;-78
2022/04/30 07:55:29;;;;;;;8.53;7.13;;;;;;;8.44;88.47;101025.13;5074027;28;20209;-78
2022/04/30 07:57:57;;;;;;;7.83;6.97;;;;;;;8.55;89.47;100999.09;5078264;28;20204;-79
2022/04/30 08:00:23;;;;;;;7.90;7.10;;;;;;;8.67;88.48;101016.44;5086493;28;20272;-78
2022/04/30 08:02:51;;;;;;;7.47;6.80;;;;;;;8.80;87.92;101020.75;5085654;28;20229;-78
2022/04/30 08:05:18;;;;;;;8.07;7.33;;;;;;;8.96;86.82;101055.44;5086849;28;20215;-78
2022/04/30 08:07:44;;;;;;;9.13;7.73;;;;;;;8.86;87.12;101066.72;5087114;28;20219;-79
2022/04/30 08:10:11;;;;;;;9.23;7.23;;;;;;;9.13;87.95;101063.19;5086435;28;20238;-79
2022/04/30 08:12:37;;;;;;;7.70;6.80;;;;;;;9.36;87.62;101062.25;5085996;28;20228;-79
2022/04/30 08:15:05;;;;;;;10.20;9.30;;;;;;;9.70;86.94;101076.84;5080886;28;20438;-80
2022/04/30 08:17:31;;;;;;;7.90;7.13;;;;;;;9.81;85.15;101123.75;5079578;28;20449;-80
2022/04/30 08:19:59;;;;;;;10.13;9.23;;;;;;;9.96;84.29;101155.81;5075183;28;20465;-79
2022/04/30 08:22:25;;;;;;;8.27;7.43;;;;;;;9.62;83.96;101161.19;5076241;28;20231;-80
2022/04/30 08:24:52;;;;;;;7.73;6.97;;;;;;;9.68;83.43;101182.88;5077978;28;20212;-80
2022/04/30 08:27:18;;;;;;;7.85;7.10;;;;;;;9.48;81.32;101236.81;5077513;28;20912;-79
2022/04/30 08:29:45;;;;;;;7.87;7.07;;;;;;;9.52;82.08;101239.38;5075996;28;20207;-81
2022/04/30 08:32:12;;;;;;;7.80;7.00;;;;;;;9.72;81.90;101218.47;5074270;28;20308;-78
2022/04/30 08:34:39;;;;;;;12.03;7.77;;;;;;;9.76;81.92;101224.56;5074753;28;20235;-78
2022/04/30 08:37:07;;;;;;;8.10;6.13;;;;;;;9.77;80.51;101260.19;5075743;28;20243;-79
2022/04/30 08:39:34;;;;;;;6.17;5.63;;;;;;;9.58;79.38;101308.88;5075769;28;20627;-81
2022/04/30 08:42:00;;;;;;;6.83;6.23;;;;;;;9.60;79.38;101295.88;5079021;28;20228;-80
2022/04/30 08:44:27;;;;;;;7.70;6.90;;;;;;;9.67;78.97;101308.00;5077630;28;20207;-80
2022/04/30 08:46:56;;;;;;;7.17;6.40;;;;;;;9.71;80.13;101297.59;5077115;28;20291;-79
2022/04/30 08:49:23;;;;;;;8.20;6.00;;;;;;;9.70;79.86;101287.16;5076363;28;20219;-80
2022/04/30 08:51:49;;;;;;;8.23;7.63;;;;;;;9.87;79.92;101292.31;5077408;28;20278;-80
2022/04/30 08:54:17;;;;;;;8.77;7.97;;;;;;;10.00;79.46;101301.00;5072902;28;21004;-78
2022/04/30 08:56:52;;;;;;;7.93;7.13;;;;;;;10.05;76.57;101362.72;5073882;28;20207;-80
2022/04/30 08:59:19;;;;;;;8.60;7.27;;;;;;;10.12;77.97;101351.38;5073092;28;20291;-79
2022/04/30 09:01:46;;;;;;;6.97;6.30;;;;;;;10.27;76.76;101367.91;5072530;28;20236;-78
2022/04/30 09:04:13;;;;;;;9.37;6.33;;;;;;;10.36;75.44;101414.84;5072865;28;20218;-81
2022/04/30 09:06:44;;;;;;;7.43;6.83;;;;;;;10.49;76.54;101397.44;5074037;28;20218;-79
2022/04/30 09:09:12;;;;;;;7.97;5.97;;;;;;;10.33;74.08;101467.94;5074226;28;20215;-79
2022/04/30 09:11:40;;;;;;;6.40;5.87;;;;;;;9.78;74.21;101496.59;5073958;28;20234;-80
2022/04/30 09:14:06;;;;;;;7.83;6.37;;;;;;;9.79;74.57;101458.34;5073870;28;20238;-78
2022/04/30 09:16:33;;;;;;;6.90;6.30;;;;;;;9.99;74.78;101450.53;5074035;28;20207;-79
2022/04/30 09:19:03;;;;;;;8.97;6.80;;;;;;;10.10;75.15;101431.38;5073865;28;20662;-79
2022/04/30 09:21:29;;;;;;;7.50;6.80;;;;;;;10.19;76.04;101422.69;5074717;28;20230;-80
2022/04/30 09:24:03;;;;;;;7.40;5.57;;;;;;;10.55;76.76;101357.41;5074081;28;20212;-79
2022/04/30 09:26:40;;;;;;;7.40;6.77;;;;;;;10.82;73.25;101450.41;5073648;28;20205;-78
2022/04/30 09:29:20;;;;;;;7.57;6.93;;;;;;;10.93;74.22;101470.38;5074829;28;20200;-78
2022/04/30 09:31:49;;;;;;;7.10;6.50;;;;;;;10.70;72.14;101513.97;5073939;28;20298;-79
2022/04/30 09:39:42;;;;;;;7.50;6.37;;;;;;;11.09;72.23;101513.00;5073028;28;20615;-79
2022/04/30 09:42:10;;;;;;;8.33;6.67;;;;;;;11.24;70.84;101542.59;5074219;28;20224;-80
2022/04/30 09:44:37;;;;;;;7.63;6.37;;;;;;;10.76;70.71;101555.75;5074232;28;21096;-79
2022/04/30 09:47:05;;;;;;;8.77;7.97;;;;;;;10.16;74.04;101510.53;5074326;28;20676;-79
2022/04/30 09:55:01;;;;;;;9.60;8.77;;;;;;;10.43;74.37;101427.03;5073828;28;20226;-79
2022/04/30 09:57:33;;;;;;;9.00;8.10;;;;;;;10.66;73.95;101424.38;5073537;28;20237;-79
2022/04/30 10:00:00;;;;;;;8.77;8.03;;;;;;;10.47;74.19;101428.75;5072736;28;20283;-79
2022/04/30 10:02:28;;;;;;;9.63;8.80;;;;;;;10.51;75.23;101429.63;5073628;28;20234;-80
2022/04/30 10:04:57;;;;;;;9.57;8.57;;;;;;;10.76;73.21;101450.41;5075958;28;20246;-79
2022/04/30 10:07:25;;;;;;;9.47;8.77;;;;;;;10.55;71.89;101507.06;5074021;28;20207;-79
2022/04/30 10:10:02;;;;;;;9.20;7.97;;;;;;;10.25;72.90;101502.72;5076317;28;20235;-81
2022/04/30 10:12:33;;;;;;;9.33;8.63;;;;;;;10.47;74.03;101451.38;5075453;28;20592;-79
2022/04/30 10:15:12;;;;;;;9.63;8.83;;;;;;;10.38;73.02;101469.66;5074030;28;20271;-80
2022/04/30 10:17:42;;;;;;;9.57;8.80;;;;;;;10.42;72.46;101477.47;5073828;28;20259;-80
2022/04/30 10:20:16;;;;;;;8.93;8.33;;;;;;;10.51;72.02;101502.72;5074622;28;20294;-82
2022/04/30 10:22:50;;;;;;;10.13;9.33;;;;;;;10.66;72.56;101481.81;5076129;28;20670;-81
2022/04/30 10:25:17;;;;;;;10.90;9.90;;;;;;;10.89;72.39;101473.03;5075130;28;20314;-81
2022/04/30 10:27:47;;;;;;;8.40;7.70;;;;;;;11.02;70.91;101505.19;5075655;28;20262;-83
2022/04/30 10:30:23;;;;;;;8.47;7.67;;;;;;;10.73;69.48;101564.47;5074996;28;20222;-80
2022/04/30 10:32:59;;;;;;;10.23;8.90;;;;;;;10.62;70.13;101574.03;5074868;28;20885;-80
2022/04/30 10:35:32;;;;;;;10.13;8.83;;;;;;;10.26;70.20;101580.13;5075034;28;20235;-83
2022/04/30 10:38:16;;;;;;;10.77;9.77;;;;;;;10.33;72.42;101495.78;5075379;28;20216;-81
2022/04/30 10:40:47;;;;;;;9.47;8.67;;;;;;;10.45;71.80;101498.38;5073566;28;20290;-80
2022/04/30 10:43:19;;;;;;;9.37;8.67;;;;;;;10.57;70.95;101515.75;5073950;28;20211;-78
2022/04/30 10:45:47;;;;;;;8.80;8.23;;;;;;;10.73;69.70;101564.47;5069609;28;20197;-79
2022/04/30 10:48:14;;;;;;;8.17;7.50;;;;;;;10.81;70.13;101566.22;5070125;28;20204;-78
2022/04/30 10:50:41;;;;;;;7.53;6.83;;;;;;;10.68;71.31;101532.28;5069415;28;20261;-77
2022/04/30 10:53:10;;;;;;;6.67;6.20;;;;;;;10.54;73.18;101473.97;5069407;28;20559;-78
2022/04/30 10:55:38;;;;;;;8.27;6.80;;;;;;;10.57;72.74;101467.91;5069830;28;20234;-77
2022/04/30 10:58:04;;;;;;;8.87;6.73;;;;;;;10.42;73.47;101451.38;5068369;28;20208;-78
2022/04/30 11:00:32;;;;;;;7.50;6.90;;;;;;;10.08;73.87;101453.13;5069707;28;20219;-79
2022/04/30 11:03:08;;;;;;;7.70;7.00;;;;;;;9.90;74.08;101425.31;5071004;28;20216;-79
2022/04/30 11:05:35;;;;;;;8.07;6.67;;;;;;;9.83;74.08;101418.34;5070688;28;20200;-79
2022/04/30 11:08:03;;;;;;;6.60;6.10;;;;;;;10.09;74.15;101416.63;5070062;28;20285;-78
2022/04/30 11:10:30;;;;;;;7.10;6.50;;;;;;;10.32;73.12;101434.88;5069393;28;20200;-79
2022/04/30 11:13:03;;;;;;;6.57;6.07;;;;;;;10.42;71.88;101463.56;5069649;28;20257;-78
2022/04/30 11:15:29;;;;;;;6.43;5.93;;;;;;;10.49;72.58;101470.53;5069179;28;21281;-77
2022/04/30 11:17:59;;;;;;;6.20;5.73;;;;;;;10.62;71.29;101487.88;5069277;28;20270;-79
2022/04/30 11:20:26;;;;;;;6.90;6.30;;;;;;;10.71;70.94;101516.59;5069448;28;20216;-78
2022/04/30 11:22:53;;;;;;;6.43;5.93;;;;;;;10.67;70.65;101517.47;5069747;28;20205;-78
2022/04/30 11:25:20;;;;;;;6.43;5.93;;;;;;;10.64;70.66;101522.69;5069835;28;20199;-77
2022/04/30 11:27:47;;;;;;;6.47;5.87;;;;;;;10.38;70.30;101530.56;5068444;28;20257;-79
2022/04/30 11:30:14;;;;;;;6.07;5.63;;;;;;;10.31;71.79;101498.38;5069040;28;20220;-79
2022/04/30 11:32:40;;;;;;;7.33;6.00;;;;;;;10.18;72.15;101478.34;5070185;28;20224;-78
2022/04/30 11:35:09;;;;;;;6.73;6.07;;;;;;;10.25;72.30;101468.78;5071093;28;20230;-78
2022/04/30 11:37:39;;;;;;;6.93;6.37;;;;;;;10.18;72.62;101451.41;5070845;28;20211;-80
2022/04/30 11:40:06;;;;;;;7.53;6.83;;;;;;;10.45;73.23;101429.66;5071143;28;20211;-81
2022/04/30 11:42:32;;;;;;;7.33;6.63;;;;;;;10.37;72.83;101434.03;5071000;28;20239;-78
2022/04/30 11:44:59;;;;;;;6.90;6.30;;;;;;;10.43;71.98;101457.50;5070795;28;20630;-79
2022/04/30 11:47:26;;;;;;;7.30;6.70;;;;;;;10.38;71.87;101469.66;5071773;28;20239;-79
2022/04/30 11:50:04;;;;;;;6.83;6.13;;;;;;;10.40;73.22;101427.03;5070603;28;20207;-81
2022/04/30 11:52:32;;;;;;;6.87;6.27;;;;;;;10.50;73.59;101399.16;5070641;28;20315;-78
2022/04/30 11:55:01;;;;;;;7.17;6.30;;;;;;;10.52;71.20;101447.00;5071240;28;21136;-79
2022/04/30 11:57:28;;;;;;;9.97;6.23;;;;;;;10.60;70.67;101494.84;5069132;28;20212;-78
2022/04/30 11:59:56;;;;;;;6.07;5.47;;;;;;;10.49;69.99;101509.69;5068403;28;20264;-81
2022/04/30 12:02:23;;;;;;;7.20;6.55;;;;;;;10.40;70.85;101502.72;5070624;28;20919;-78
2022/04/30 12:04:50;;;;;;;7.17;6.47;;;;;;;10.27;71.27;101491.41;5065887;28;20274;-79
2022/04/30 12:07:17;;;;;;;6.07;5.47;;;;;;;10.16;71.84;101474.00;5074421;28;20666;-78
2022/04/30 12:09:46;;;;;;;10.57;6.00;;;;;;;10.29;71.83;101453.13;5072678;28;20560;-79